Time;durP1;ratioP1;P1;durP2;ratioP2;P2;SDS_P1;SDS_P2;PMS_P1;PMS_P2;Temp;Humidity;BMP_temperature;BMP_pressure;BME280_temperature;BME280_humidity;BME280_pressure;Samples;Min_cycle;Max_cycle;Signal;HPM_P1;HPM_P2
2024/02/27 19:15:45;;;;;;;2.63;0.63;;;;;;;;;;2099850;27;20856;-47
2024/02/27 19:16:48;;;;;;;3.40;0.52;;;;;;;;;;2097187;28;20048;-48
2024/02/27 19:17:49;;;;;;;3.58;0.57;;;;;;;;;;2093615;28;20070;-47
2024/02/27 19:18:52;;;;;;;4.55;0.70;;;;;;;;;;2091364;28;20017;-47
2024/02/27 19:19:53;;;;;;;1.88;0.60;;;;;;;;;;2089817;28;20488;-46
2024/02/27 19:20:54;;;;;;;1.45;0.50;;;;;;;;;;2094335;28;20424;-46
2024/02/27 19:21:55;;;;;;;3.60;0.93;;;;;;;;;;2090168;28;20029;-45
2024/02/27 19:22:57;;;;;;;1.80;0.77;;;;;;;;;;2092576;28;20025;-46
2024/02/27 19:23:59;;;;;;;4.70;0.90;;;;;;;;;;2093366;28;20847;-48
2024/02/27 19:25:00;;;;;;;4.20;0.70;;;;;;;;;;2090940;28;20029;-46
2024/02/27 19:26:01;;;;;;;6.43;1.02;;;;;;;;;;2092814;28;20033;-47
2024/02/27 19:27:03;;;;;;;2.28;0.60;;;;;;;;;;2091308;28;20397;-47
2024/02/27 19:28:04;;;;;;;4.85;0.77;;;;;;;;;;2088620;28;20110;-47
2024/02/27 19:29:05;;;;;;;2.25;0.90;;;;;;;;;;2088731;28;20108;-46
2024/02/27 19:30:08;;;;;;;2.05;0.80;;;;;;;;;;2083575;28;20029;-49
2024/02/27 19:31:12;;;;;;;3.75;1.00;;;;;;;;;;2074941;28;20135;-46
2024/02/27 19:32:13;;;;;;;4.28;1.00;;;;;;;;;;2086502;28;20025;-46
2024/02/27 19:33:15;;;;;;;3.30;0.85;;;;;;;;;;2093095;28;20094;-46
2024/02/27 19:34:16;;;;;;;3.92;0.90;;;;;;;;;;2092836;28;20457;-46
2024/02/27 19:35:18;;;;;;;3.20;0.70;;;;;;;;;;2090784;28;20037;-46
2024/02/27 19:36:19;;;;;;;5.00;1.10;;;;;;;;;;2090067;28;20028;-46
2024/02/27 19:37:20;;;;;;;3.20;1.17;;;;;;;;;;2090386;28;20013;-46
2024/02/27 19:38:22;;;;;;;2.78;0.88;;;;;;;;;;2089934;28;20018;-45
2024/02/27 19:39:23;;;;;;;2.53;1.00;;;;;;;;;;2090042;28;20032;-45
2024/02/27 19:40:24;;;;;;;4.78;1.00;;;;;;;;;;2089865;28;20446;-45
2024/02/27 19:41:25;;;;;;;4.15;0.95;;;;;;;;;;2093640;28;20410;-46
2024/02/27 19:42:27;;;;;;;1.92;0.90;;;;;;;;;;2095093;28;20016;-46
2024/02/27 19:43:28;;;;;;;5.70;0.95;;;;;;;;;;2093232;28;20386;-48
2024/02/27 19:44:29;;;;;;;4.72;1.13;;;;;;;;;;2092503;28;20056;-50
2024/02/27 19:45:30;;;;;;;4.85;0.80;;;;;;;;;;2095357;28;20016;-46
2024/02/27 19:46:33;;;;;;;6.45;1.20;;;;;;;;;;2090259;28;20035;-45
2024/02/27 19:47:34;;;;;;;3.63;0.95;;;;;;;;;;2093010;28;20024;-46
2024/02/27 19:48:35;;;;;;;3.28;0.90;;;;;;;;;;2092798;28;20109;-45
2024/02/27 19:49:36;;;;;;;2.33;0.95;;;;;;;;;;2094401;28;20024;-47
2024/02/27 19:50:38;;;;;;;5.00;1.15;;;;;;;;;;2091814;28;20449;-47
2024/02/27 19:51:40;;;;;;;4.45;1.00;;;;;;;;;;2091950;28;20499;-47
2024/02/27 19:52:43;;;;;;;6.00;2.17;;;;;;;;;;2089686;28;20032;-46
2024/02/27 19:53:45;;;;;;;8.48;1.30;;;;;;;;;;2089947;28;20021;-46
2024/02/27 19:54:47;;;;;;;4.85;1.67;;;;;;;;;;2091985;28;20403;-46
2024/02/27 19:55:48;;;;;;;7.05;1.35;;;;;;;;;;2092645;28;20384;-45
2024/02/27 19:56:49;;;;;;;3.50;1.30;;;;;;;;;;2091016;28;20021;-45
2024/02/27 19:57:50;;;;;;;4.60;0.88;;;;;;;;;;2090570;28;20032;-48
2024/02/27 19:58:52;;;;;;;3.80;0.93;;;;;;;;;;2090262;28;20091;-47
2024/02/27 19:59:53;;;;;;;4.53;1.05;;;;;;;;;;2094141;28;20087;-46
2024/02/27 20:00:54;;;;;;;3.72;1.00;;;;;;;;;;2089305;28;20052;-47
2024/02/27 20:01:56;;;;;;;5.55;1.10;;;;;;;;;;2089429;28;20032;-46
2024/02/27 20:02:58;;;;;;;4.57;0.98;;;;;;;;;;2091945;28;20031;-53
2024/02/27 20:03:59;;;;;;;2.45;0.60;;;;;;;;;;2092582;28;20028;-54
2024/02/27 20:05:00;;;;;;;3.78;1.10;;;;;;;;;;2093641;28;20028;-53
2024/02/27 20:06:02;;;;;;;3.95;0.80;;;;;;;;;;2090256;28;20078;-52
2024/02/27 20:07:04;;;;;;;3.72;1.25;;;;;;;;;;2099431;28;20087;-50
2024/02/27 20:08:05;;;;;;;5.85;1.27;;;;;;;;;;2089496;28;20052;-53
2024/02/27 20:09:07;;;;;;;4.18;0.95;;;;;;;;;;2087531;28;20021;-53
2024/02/27 20:10:09;;;;;;;2.60;0.90;;;;;;;;;;2091355;28;20466;-55
2024/02/27 20:11:10;;;;;;;4.38;1.25;;;;;;;;;;2089989;28;20038;-53
2024/02/27 20:12:12;;;;;;;4.15;0.90;;;;;;;;;;2091998;28;20047;-55
2024/02/27 20:13:17;;;;;;;5.13;1.13;;;;;;;;;;2092981;28;20032;-51
2024/02/27 20:14:19;;;;;;;4.97;0.90;;;;;;;;;;2087777;28;20186;-55
2024/02/27 20:15:20;;;;;;;2.20;0.63;;;;;;;;;;2087859;28;20467;-54
2024/02/27 20:16:21;;;;;;;2.85;0.80;;;;;;;;;;2092635;28;20024;-55
2024/02/27 20:17:23;;;;;;;5.05;1.45;;;;;;;;;;2095265;28;20491;-49
2024/02/27 20:18:25;;;;;;;2.58;0.73;;;;;;;;;;2090041;28;20434;-54
2024/02/27 20:19:26;;;;;;;2.58;0.60;;;;;;;;;;2092461;28;20099;-54
2024/02/27 20:20:30;;;;;;;5.00;0.98;;;;;;;;;;2089118;28;20103;-55
2024/02/27 20:21:31;;;;;;;4.63;0.95;;;;;;;;;;2092134;28;20054;-52
2024/02/27 20:22:32;;;;;;;6.28;1.00;;;;;;;;;;2089722;28;20020;-52
2024/02/27 20:23:34;;;;;;;3.80;0.88;;;;;;;;;;2089599;28;20025;-51
2024/02/27 20:24:36;;;;;;;4.13;0.70;;;;;;;;;;2091255;28;20033;-53
2024/02/27 20:25:38;;;;;;;4.82;0.70;;;;;;;;;;2089586;28;20017;-53
2024/02/27 20:26:42;;;;;;;4.30;0.75;;;;;;;;;;2084927;28;20120;-53
2024/02/27 20:27:44;;;;;;;3.10;0.57;;;;;;;;;;2083829;28;20013;-49
2024/02/27 20:28:51;;;;;;;1.98;0.65;;;;;;;;;;2083628;28;20036;-49
2024/02/27 20:29:53;;;;;;;1.88;0.68;;;;;;;;;;2085122;28;20037;-52
2024/02/27 20:30:54;;;;;;;1.67;0.63;;;;;;;;;;2085860;28;20032;-51
2024/02/27 20:31:56;;;;;;;2.05;0.55;;;;;;;;;;2085007;28;20036;-53
2024/02/27 20:32:57;;;;;;;3.13;0.70;;;;;;;;;;2085492;28;20173;-51
2024/02/27 20:34:00;;;;;;;2.35;0.82;;;;;;;;;;2083560;28;20155;-53
2024/02/27 20:35:02;;;;;;;4.28;0.60;;;;;;;;;;2084499;28;20459;-53
2024/02/27 20:36:04;;;;;;;1.52;0.68;;;;;;;;;;2086642;28;20032;-52
2024/02/27 20:37:06;;;;;;;2.33;0.70;;;;;;;;;;2087216;28;20033;-50
2024/02/27 20:38:07;;;;;;;2.20;1.05;;;;;;;;;;2083642;28;20033;-51
2024/02/27 20:39:09;;;;;;;1.55;0.70;;;;;;;;;;2086311;28;20444;-53
2024/02/27 20:40:12;;;;;;;4.40;1.02;;;;;;;;;;2088533;28;20077;-53
2024/02/27 20:41:13;;;;;;;3.22;0.75;;;;;;;;;;2084069;28;20033;-54
2024/02/27 20:42:15;;;;;;;3.67;1.08;;;;;;;;;;2086948;28;20531;-48
2024/02/27 20:43:16;;;;;;;4.80;0.93;;;;;;;;;;2086835;28;20055;-51
2024/02/27 20:44:17;;;;;;;3.08;1.00;;;;;;;;;;2087183;28;20430;-53
2024/02/27 20:45:20;;;;;;;3.05;0.80;;;;;;;;;;2085959;28;20026;-53
2024/02/27 20:46:22;;;;;;;6.38;1.13;;;;;;;;;;2084474;28;20372;-52
2024/02/27 20:47:24;;;;;;;3.63;0.77;;;;;;;;;;2082597;28;20013;-51
2024/02/27 20:48:25;;;;;;;3.13;0.80;;;;;;;;;;2087341;28;20113;-52
2024/02/27 20:49:26;;;;;;;1.60;0.70;;;;;;;;;;2085147;28;20040;-52
2024/02/27 20:50:27;;;;;;;6.00;1.30;;;;;;;;;;2082338;28;20044;-51
2024/02/27 20:51:29;;;;;;;2.08;0.70;;;;;;;;;;2089879;28;20029;-53
2024/02/27 20:52:30;;;;;;;2.83;1.73;;;;;;;;;;2089766;28;20055;-52
2024/02/27 20:53:33;;;;;;;2.22;1.00;;;;;;;;;;2088250;28;20083;-53
2024/02/27 20:54:35;;;;;;;2.28;1.08;;;;;;;;;;2087727;28;20403;-52
2024/02/27 20:55:37;;;;;;;2.35;1.00;;;;;;;;;;2087589;28;20476;-51
2024/02/27 20:56:39;;;;;;;3.03;0.70;;;;;;;;;;2082660;28;20032;-53
2024/02/27 20:57:40;;;;;;;3.50;1.05;;;;;;;;;;2085438;28;20120;-51
2024/02/27 20:58:42;;;;;;;2.10;0.80;;;;;;;;;;2083070;28;20512;-52
2024/02/27 20:59:43;;;;;;;2.25;0.70;;;;;;;;;;2082750;28;20480;-52
2024/02/27 21:00:45;;;;;;;2.70;0.45;;;;;;;;;;2083103;28;20025;-52
2024/02/27 21:01:46;;;;;;;2.30;0.73;;;;;;;;;;2086698;28;20176;-51
2024/02/27 21:02:47;;;;;;;4.53;1.13;;;;;;;;;;2086087;28;20021;-51
2024/02/27 21:03:49;;;;;;;3.17;0.80;;;;;;;;;;2088139;28;20144;-53
2024/02/27 21:04:50;;;;;;;2.67;0.70;;;;;;;;;;2086935;28;20021;-52
2024/02/27 21:05:51;;;;;;;4.20;0.65;;;;;;;;;;2084370;28;20510;-50
2024/02/27 21:06:52;;;;;;;4.97;1.08;;;;;;;;;;2086559;28;20095;-52
2024/02/27 21:07:53;;;;;;;3.90;0.70;;;;;;;;;;2084942;28;20527;-52
2024/02/27 21:08:55;;;;;;;1.65;0.80;;;;;;;;;;2082409;28;20032;-52
2024/02/27 21:09:56;;;;;;;2.05;0.88;;;;;;;;;;2081441;28;20473;-51
2024/02/27 21:10:59;;;;;;;3.78;0.90;;;;;;;;;;2087527;28;20025;-50
2024/02/27 21:12:00;;;;;;;4.38;0.70;;;;;;;;;;2083230;28;20021;-50
2024/02/27 21:13:02;;;;;;;1.95;0.70;;;;;;;;;;2083550;28;20053;-51
2024/02/27 21:14:03;;;;;;;2.80;0.60;;;;;;;;;;2083955;28;20500;-52
2024/02/27 21:15:05;;;;;;;2.60;0.82;;;;;;;;;;2089290;28;20084;-52
2024/02/27 21:16:08;;;;;;;2.15;0.77;;;;;;;;;;2085692;28;20045;-53
2024/02/27 21:17:09;;;;;;;3.45;0.95;;;;;;;;;;2083181;28;20025;-50
2024/02/27 21:18:11;;;;;;;3.08;0.70;;;;;;;;;;2085810;28;20104;-53
2024/02/27 21:19:13;;;;;;;2.90;1.02;;;;;;;;;;2086720;28;20022;-53
2024/02/27 21:20:18;;;;;;;3.13;0.85;;;;;;;;;;2081424;28;20061;-50
2024/02/27 21:21:19;;;;;;;3.35;0.88;;;;;;;;;;2086303;28;20044;-52
2024/02/27 21:22:20;;;;;;;2.75;0.90;;;;;;;;;;2084189;28;20029;-52
2024/02/27 21:23:22;;;;;;;5.03;1.30;;;;;;;;;;2081654;28;20028;-53
2024/02/27 21:24:23;;;;;;;5.07;1.23;;;;;;;;;;2085681;28;20483;-52
2024/02/27 21:25:24;;;;;;;2.55;1.00;;;;;;;;;;2083522;28;20033;-53
2024/02/27 21:26:25;;;;;;;2.45;1.00;;;;;;;;;;2083656;28;20159;-51
2024/02/27 21:27:27;;;;;;;4.57;1.08;;;;;;;;;;2085951;28;20033;-52
2024/02/27 21:28:28;;;;;;;2.42;1.30;;;;;;;;;;2083774;28;20017;-50
2024/02/27 21:29:30;;;;;;;5.65;1.40;;;;;;;;;;2079295;28;20034;-51
2024/02/27 21:30:31;;;;;;;6.55;1.30;;;;;;;;;;2083216;28;20108;-52
2024/02/27 21:31:33;;;;;;;5.38;1.10;;;;;;;;;;2089167;28;20021;-52
2024/02/27 21:32:34;;;;;;;2.13;1.17;;;;;;;;;;2084672;28;20026;-50
2024/02/27 21:33:35;;;;;;;3.45;0.70;;;;;;;;;;2085621;28;20028;-52
2024/02/27 21:34:38;;;;;;;3.75;1.35;;;;;;;;;;2085168;28;20097;-52
2024/02/27 21:35:39;;;;;;;2.20;0.70;;;;;;;;;;2081051;28;20047;-51
2024/02/27 21:36:41;;;;;;;2.20;0.80;;;;;;;;;;2086321;28;20013;-52
2024/02/27 21:37:42;;;;;;;3.55;1.02;;;;;;;;;;2083559;28;20599;-52
2024/02/27 21:38:43;;;;;;;4.07;1.00;;;;;;;;;;2086045;28;20072;-56
2024/02/27 21:39:44;;;;;;;2.65;1.23;;;;;;;;;;2081415;28;20034;-52
2024/02/27 21:40:46;;;;;;;6.55;1.45;;;;;;;;;;2083044;28;20454;-51
2024/02/27 21:41:47;;;;;;;5.38;1.55;;;;;;;;;;2083564;28;20028;-51
2024/02/27 21:42:48;;;;;;;3.17;1.20;;;;;;;;;;2084813;28;20028;-50
2024/02/27 21:43:49;;;;;;;6.07;2.20;;;;;;;;;;2083816;28;20109;-53
2024/02/27 21:44:51;;;;;;;4.28;1.38;;;;;;;;;;2088492;28;20021;-51
2024/02/27 21:45:52;;;;;;;6.15;1.17;;;;;;;;;;2089064;28;20337;-52
2024/02/27 21:46:54;;;;;;;4.57;1.20;;;;;;;;;;2080828;28;20144;-52
2024/02/27 21:47:55;;;;;;;3.85;1.10;;;;;;;;;;2079188;28;20076;-53
2024/02/27 21:48:57;;;;;;;2.60;1.00;;;;;;;;;;2080802;28;20014;-52
2024/02/27 21:49:58;;;;;;;6.35;1.60;;;;;;;;;;2086520;28;20435;-52
2024/02/27 21:50:59;;;;;;;6.35;1.30;;;;;;;;;;2087542;28;20368;-51
2024/02/27 21:52:00;;;;;;;2.45;0.85;;;;;;;;;;2088921;28;20013;-52
2024/02/27 21:53:02;;;;;;;4.35;1.05;;;;;;;;;;2084544;28;20132;-52
2024/02/27 21:54:03;;;;;;;3.85;1.20;;;;;;;;;;2086929;28;20100;-52
2024/02/27 21:55:05;;;;;;;2.80;0.90;;;;;;;;;;2086089;28;20021;-51
2024/02/27 21:56:06;;;;;;;2.67;0.85;;;;;;;;;;2087192;28;20033;-49
2024/02/27 21:57:07;;;;;;;3.13;1.45;;;;;;;;;;2082279;28;20026;-53
2024/02/27 21:58:09;;;;;;;1.80;0.55;;;;;;;;;;2085958;28;20157;-52
2024/02/27 21:59:11;;;;;;;2.85;1.10;;;;;;;;;;2083091;28;20068;-54
2024/02/27 22:00:13;;;;;;;2.70;0.65;;;;;;;;;;2085112;28;20046;-52
2024/02/27 22:01:14;;;;;;;3.40;1.10;;;;;;;;;;2081965;28;20423;-52
2024/02/27 22:02:15;;;;;;;1.67;0.45;;;;;;;;;;2084644;28;20030;-52
2024/02/27 22:03:17;;;;;;;5.20;0.80;;;;;;;;;;2086301;28;20539;-53
2024/02/27 22:04:18;;;;;;;5.53;1.00;;;;;;;;;;2083698;28;20031;-51
2024/02/27 22:05:21;;;;;;;3.00;0.70;;;;;;;;;;2083528;28;20416;-51
2024/02/27 22:06:22;;;;;;;1.33;0.50;;;;;;;;;;2088510;28;20029;-52
2024/02/27 22:07:23;;;;;;;4.05;0.50;;;;;;;;;;2085471;28;20376;-50
2024/02/27 22:08:24;;;;;;;3.67;0.60;;;;;;;;;;2087182;28;20036;-50
2024/02/27 22:09:26;;;;;;;2.70;0.52;;;;;;;;;;2089667;28;20070;-50
2024/02/27 22:10:27;;;;;;;0.85;0.30;;;;;;;;;;2086006;28;20013;-54
2024/02/27 22:11:28;;;;;;;3.33;0.60;;;;;;;;;;2086091;28;20029;-51
2024/02/27 22:12:30;;;;;;;2.13;0.55;;;;;;;;;;2086031;28;20051;-53
2024/02/27 22:13:31;;;;;;;1.67;0.30;;;;;;;;;;2086948;28;20021;-52
2024/02/27 22:14:32;;;;;;;2.88;0.60;;;;;;;;;;2086697;28;20058;-53
2024/02/27 22:15:34;;;;;;;2.85;0.73;;;;;;;;;;2086229;28;20041;-52
2024/02/27 22:16:36;;;;;;;1.80;0.60;;;;;;;;;;2083522;28;20478;-50
2024/02/27 22:17:37;;;;;;;3.33;0.88;;;;;;;;;;2084529;28;20032;-51
2024/02/27 22:18:39;;;;;;;3.30;0.77;;;;;;;;;;2088083;28;20031;-49
2024/02/27 22:19:40;;;;;;;2.60;0.88;;;;;;;;;;2085740;28;20476;-51
2024/02/27 22:20:41;;;;;;;2.00;0.40;;;;;;;;;;2089810;28;20025;-52
2024/02/27 22:21:46;;;;;;;2.38;0.60;;;;;;;;;;2086873;28;20024;-51
2024/02/27 22:22:47;;;;;;;2.47;0.60;;;;;;;;;;2083975;28;20581;-50
2024/02/27 22:23:48;;;;;;;2.50;0.45;;;;;;;;;;2084865;28;20017;-52
2024/02/27 22:24:49;;;;;;;5.40;0.55;;;;;;;;;;2082133;28;20029;-54
2024/02/27 22:25:51;;;;;;;2.28;0.35;;;;;;;;;;2083609;28;20021;-52
2024/02/27 22:26:52;;;;;;;2.55;0.40;;;;;;;;;;2083684;28;20476;-48
2024/02/27 22:27:53;;;;;;;3.13;1.00;;;;;;;;;;2086487;28;20060;-51
2024/02/27 22:28:54;;;;;;;2.53;0.50;;;;;;;;;;2094229;28;20021;-51
2024/02/27 22:29:57;;;;;;;1.80;0.57;;;;;;;;;;2086826;28;20025;-52
2024/02/27 22:30:58;;;;;;;2.45;0.50;;;;;;;;;;2086920;28;20025;-50
2024/02/27 22:31:59;;;;;;;2.15;0.80;;;;;;;;;;2083175;28;20033;-50
2024/02/27 22:33:01;;;;;;;1.17;0.40;;;;;;;;;;2085922;28;20109;-53
2024/02/27 22:34:03;;;;;;;1.70;0.40;;;;;;;;;;2086626;28;20721;-52
2024/02/27 22:35:04;;;;;;;3.10;0.50;;;;;;;;;;2084958;28;20021;-50
2024/02/27 22:36:06;;;;;;;3.45;0.80;;;;;;;;;;2083560;28;20006;-52
2024/02/27 22:37:07;;;;;;;3.40;0.65;;;;;;;;;;2085233;28;20380;-53
2024/02/27 22:38:09;;;;;;;1.60;0.55;;;;;;;;;;2084164;28;20620;-51
2024/02/27 22:39:11;;;;;;;2.78;0.45;;;;;;;;;;2082973;28;20396;-52
2024/02/27 22:40:12;;;;;;;1.50;0.60;;;;;;;;;;2085621;28;20049;-53
2024/02/27 22:41:14;;;;;;;2.17;0.38;;;;;;;;;;2082788;28;20028;-51
2024/02/27 22:42:15;;;;;;;2.50;0.45;;;;;;;;;;2082957;28;20014;-49
2024/02/27 22:43:17;;;;;;;1.92;0.73;;;;;;;;;;2093552;28;20012;-52
2024/02/27 22:44:18;;;;;;;2.78;0.55;;;;;;;;;;2090475;28;20087;-50
2024/02/27 22:45:20;;;;;;;3.63;0.98;;;;;;;;;;2086260;28;20033;-51
2024/02/27 22:46:24;;;;;;;2.35;0.63;;;;;;;;;;2081322;28;20030;-52
2024/02/27 22:47:26;;;;;;;3.08;0.60;;;;;;;;;;2086263;28;20492;-52
2024/02/27 22:48:27;;;;;;;3.92;0.65;;;;;;;;;;2088287;28;20528;-51
2024/02/27 22:49:28;;;;;;;2.50;0.60;;;;;;;;;;2089174;28;20035;-50
2024/02/27 22:50:29;;;;;;;2.80;0.77;;;;;;;;;;2087298;28;20021;-52
2024/02/27 22:51:31;;;;;;;0.90;0.63;;;;;;;;;;2088962;28;20033;-50
2024/02/27 22:52:32;;;;;;;1.98;0.63;;;;;;;;;;2087217;28;20488;-50
2024/02/27 22:53:34;;;;;;;3.53;0.60;;;;;;;;;;2084756;28;20025;-52
2024/02/27 22:54:35;;;;;;;1.77;0.90;;;;;;;;;;2082271;28;20025;-49
2024/02/27 22:55:37;;;;;;;4.05;0.63;;;;;;;;;;2088063;28;20053;-50
2024/02/27 22:56:38;;;;;;;2.13;0.50;;;;;;;;;;2084454;28;20017;-52
2024/02/27 22:57:42;;;;;;;5.38;0.95;;;;;;;;;;2084397;28;20061;-50
2024/02/27 22:58:43;;;;;;;1.73;0.50;;;;;;;;;;2083217;28;20551;-52
2024/02/27 22:59:44;;;;;;;2.38;0.50;;;;;;;;;;2082717;28;20021;-49
2024/02/27 23:00:46;;;;;;;6.25;0.70;;;;;;;;;;2081621;28;20018;-51
2024/02/27 23:01:47;;;;;;;1.55;0.63;;;;;;;;;;2085178;28;20487;-52
2024/02/27 23:02:48;;;;;;;1.30;0.50;;;;;;;;;;2086074;28;20044;-50
2024/02/27 23:03:49;;;;;;;3.13;0.60;;;;;;;;;;2086690;28;20100;-50
2024/02/27 23:04:51;;;;;;;1.15;0.38;;;;;;;;;;2086684;28;20025;-51
2024/02/27 23:05:52;;;;;;;1.85;0.65;;;;;;;;;;2085615;28;20479;-51
2024/02/27 23:06:53;;;;;;;1.73;0.60;;;;;;;;;;2088785;28;20045;-49
2024/02/27 23:07:55;;;;;;;2.70;0.52;;;;;;;;;;2084148;28;20016;-47
2024/02/27 23:08:57;;;;;;;1.23;0.47;;;;;;;;;;2080825;28;20369;-50
2024/02/27 23:09:58;;;;;;;3.60;0.70;;;;;;;;;;2083227;28;20028;-50
2024/02/27 23:10:59;;;;;;;3.13;0.88;;;;;;;;;;2087921;28;20057;-50
2024/02/27 23:12:01;;;;;;;2.17;0.60;;;;;;;;;;2087880;28;20017;-51
2024/02/27 23:13:02;;;;;;;3.22;0.70;;;;;;;;;;2085933;28;20021;-50
2024/02/27 23:14:06;;;;;;;3.20;0.60;;;;;;;;;;2084277;28;20026;-52
2024/02/27 23:15:08;;;;;;;2.58;0.95;;;;;;;;;;2083178;28;20045;-52
2024/02/27 23:16:09;;;;;;;2.97;0.82;;;;;;;;;;2083846;28;20025;-53
2024/02/27 23:17:11;;;;;;;3.42;0.55;;;;;;;;;;2086946;28;20500;-51
2024/02/27 23:18:12;;;;;;;2.78;0.73;;;;;;;;;;2087076;28;20074;-50
2024/02/27 23:19:14;;;;;;;1.85;0.68;;;;;;;;;;2083911;28;20023;-53
2024/02/27 23:20:15;;;;;;;4.07;0.75;;;;;;;;;;2086459;28;20025;-51
2024/02/27 23:21:17;;;;;;;3.35;0.60;;;;;;;;;;2083494;28;20071;-51
2024/02/27 23:22:18;;;;;;;1.60;0.40;;;;;;;;;;2083902;28;20041;-51
2024/02/27 23:23:21;;;;;;;3.00;0.50;;;;;;;;;;2089691;28;20530;-50
2024/02/27 23:24:22;;;;;;;1.65;0.50;;;;;;;;;;2085472;28;20017;-53
2024/02/27 23:25:23;;;;;;;2.45;0.63;;;;;;;;;;2087400;28;20032;-51
2024/02/27 23:26:25;;;;;;;4.47;0.45;;;;;;;;;;2086234;28;20116;-52
2024/02/27 23:27:26;;;;;;;3.40;0.57;;;;;;;;;;2082806;28;20037;-49
2024/02/27 23:28:28;;;;;;;1.83;0.57;;;;;;;;;;2085171;28;20571;-50
2024/02/27 23:29:29;;;;;;;2.22;0.40;;;;;;;;;;2083367;28;20572;-47
2024/02/27 23:30:30;;;;;;;3.35;0.60;;;;;;;;;;2086747;28;20570;-53
2024/02/27 23:31:32;;;;;;;2.35;0.50;;;;;;;;;;2085559;28;20020;-49
2024/02/27 23:32:33;;;;;;;4.22;0.70;;;;;;;;;;2082867;28;20045;-52
2024/02/27 23:33:35;;;;;;;2.78;0.40;;;;;;;;;;2087553;28;20028;-51
2024/02/27 23:34:36;;;;;;;1.95;0.40;;;;;;;;;;2083838;28;20464;-50
2024/02/27 23:35:39;;;;;;;3.25;0.95;;;;;;;;;;2087137;28;20041;-50
2024/02/27 23:36:40;;;;;;;3.15;0.60;;;;;;;;;;2090761;28;20054;-50
2024/02/27 23:37:47;;;;;;;2.63;0.73;;;;;;;;;;2084376;28;20029;-51
2024/02/27 23:38:48;;;;;;;2.35;0.73;;;;;;;;;;2081304;28;20025;-51
2024/02/27 23:39:49;;;;;;;2.78;0.40;;;;;;;;;;2084921;28;20045;-52
2024/02/27 23:40:51;;;;;;;2.63;0.80;;;;;;;;;;2084492;28;20104;-55
2024/02/27 23:41:52;;;;;;;3.20;0.40;;;;;;;;;;2082804;28;20005;-52
2024/02/27 23:42:53;;;;;;;3.17;0.73;;;;;;;;;;2080562;28;20021;-53
2024/02/27 23:43:54;;;;;;;2.13;0.70;;;;;;;;;;2085896;28;20519;-51
2024/02/27 23:44:56;;;;;;;3.38;0.65;;;;;;;;;;2087545;28;20017;-50
2024/02/27 23:45:57;;;;;;;1.85;0.52;;;;;;;;;;2083013;28;20395;-50
2024/02/27 23:46:58;;;;;;;1.80;0.55;;;;;;;;;;2082865;28;20495;-50
2024/02/27 23:48:00;;;;;;;2.83;0.47;;;;;;;;;;2085512;28;20589;-50
2024/02/27 23:49:01;;;;;;;2.33;0.57;;;;;;;;;;2085081;28;20450;-50
2024/02/27 23:50:02;;;;;;;4.32;0.60;;;;;;;;;;2076371;28;20117;-50
2024/02/27 23:51:03;;;;;;;2.70;0.50;;;;;;;;;;2079860;28;20014;-51
2024/02/27 23:52:05;;;;;;;3.45;0.77;;;;;;;;;;2083230;28;20021;-52
2024/02/27 23:53:06;;;;;;;3.60;0.50;;;;;;;;;;2084252;28;20029;-52
2024/02/27 23:54:07;;;;;;;2.58;0.40;;;;;;;;;;2085287;28;20019;-51
2024/02/27 23:55:09;;;;;;;2.92;0.57;;;;;;;;;;2087316;28;20043;-50
2024/02/27 23:56:10;;;;;;;2.10;0.50;;;;;;;;;;2088231;28;20040;-53
2024/02/27 23:57:12;;;;;;;2.67;0.50;;;;;;;;;;2084838;28;20037;-51
2024/02/27 23:58:13;;;;;;;1.23;0.47;;;;;;;;;;2086283;28;20025;-51
2024/02/27 23:59:17;;;;;;;5.15;0.63;;;;;;;;;;2084846;28;20547;-52
